Time;durP1;ratioP1;P1;durP2;ratioP2;P2;SDS_P1;SDS_P2;PMS_P1;PMS_P2;Temp;Humidity;BMP_temperature;BMP_pressure;BME280_temperature;BME280_humidity;BME280_pressure;Samples;Min_cycle;Max_cycle;Signal;HPM_P1;HPM_P2
2022/03/21 00:02:16;;;;;;;11.38;8.68;;;6.40;64.00;;;;;;5007223;28;20156;-49
2022/03/21 00:04:41;;;;;;;13.63;8.88;;;6.40;63.90;;;;;;5009038;28;20018;-49
2022/03/21 00:07:07;;;;;;;11.35;8.35;;;6.40;64.10;;;;;;5007555;28;20030;-50
2022/03/21 00:09:32;;;;;;;12.15;8.40;;;6.30;64.20;;;;;;5009459;28;20033;-52
2022/03/21 00:11:58;;;;;;;10.50;8.30;;;6.30;64.30;;;;;;5008912;28;20037;-55
2022/03/21 00:14:24;;;;;;;14.27;9.27;;;6.20;64.80;;;;;;5009544;28;20030;-54
2022/03/21 00:16:49;;;;;;;11.90;8.50;;;6.20;64.00;;;;;;5008835;28;20030;-51
2022/03/21 00:19:15;;;;;;;12.27;8.60;;;6.20;65.30;;;;;;5009057;28;20093;-49
2022/03/21 00:21:40;;;;;;;12.73;8.82;;;6.10;65.40;;;;;;5008909;28;20084;-50
2022/03/21 00:24:06;;;;;;;14.02;8.15;;;6.10;65.00;;;;;;5009090;28;20018;-55
2022/03/21 00:26:32;;;;;;;10.85;8.88;;;6.10;65.00;;;;;;5008897;28;20408;-52
2022/03/21 00:28:57;;;;;;;11.90;9.40;;;6.10;64.40;;;;;;5001889;28;20034;-50
2022/03/21 00:31:23;;;;;;;13.50;9.02;;;6.10;64.90;;;;;;4992619;28;20485;-51
2022/03/21 00:33:49;;;;;;;11.68;8.20;;;6.10;64.90;;;;;;4993337;28;20480;-51
2022/03/21 00:36:15;;;;;;;11.48;8.32;;;6.10;64.20;;;;;;4993230;28;20038;-50
2022/03/21 00:38:43;;;;;;;9.95;7.88;;;6.00;65.60;;;;;;4992917;28;20037;-53
2022/03/21 00:41:09;;;;;;;13.70;8.30;;;5.90;65.80;;;;;;4993158;28;20076;-49
2022/03/21 00:43:36;;;;;;;12.20;8.40;;;5.90;65.90;;;;;;4993405;28;20030;-51
2022/03/21 00:46:02;;;;;;;11.65;7.78;;;5.90;65.50;;;;;;4992156;28;20030;-54
2022/03/21 00:48:30;;;;;;;11.43;8.68;;;5.80;66.70;;;;;;4994414;28;20481;-51
2022/03/21 00:50:57;;;;;;;9.00;7.85;;;5.80;66.20;;;;;;4994108;28;20034;-53
2022/03/21 00:53:23;;;;;;;11.68;8.18;;;5.70;67.40;;;;;;4992854;28;20030;-53
2022/03/21 00:55:49;;;;;;;12.55;9.25;;;5.70;67.30;;;;;;4993950;28;20088;-51
2022/03/21 00:58:16;;;;;;;12.70;7.80;;;5.70;68.00;;;;;;5010464;28;20104;-54
2022/03/21 01:00:42;;;;;;;12.35;8.20;;;5.60;66.90;;;;;;4995206;28;20595;-51
2022/03/21 01:03:08;;;;;;;13.63;8.45;;;5.60;67.40;;;;;;5008984;28;20069;-51
2022/03/21 01:05:35;;;;;;;12.95;8.60;;;5.60;66.90;;;;;;4980808;28;20029;-53
2022/03/21 01:08:02;;;;;;;12.40;8.10;;;5.60;66.80;;;;;;5008612;28;20105;-53
2022/03/21 01:10:29;;;;;;;12.43;8.85;;;5.60;67.50;;;;;;5007095;28;20025;-52
2022/03/21 01:12:55;;;;;;;11.93;8.15;;;5.50;67.40;;;;;;5012130;28;20026;-51
2022/03/21 01:15:24;;;;;;;13.00;8.60;;;5.50;67.80;;;;;;5009573;28;20084;-52
2022/03/21 01:17:51;;;;;;;13.88;9.25;;;5.50;68.30;;;;;;5008069;28;20040;-51
2022/03/21 01:20:19;;;;;;;10.75;8.07;;;5.50;68.00;;;;;;4993039;28;20026;-53
2022/03/21 01:22:45;;;;;;;11.55;8.70;;;5.40;68.50;;;;;;4997225;28;20022;-54
2022/03/21 01:25:11;;;;;;;15.50;8.68;;;5.40;68.20;;;;;;5003361;28;20034;-50
2022/03/21 01:27:38;;;;;;;12.88;8.32;;;5.40;68.70;;;;;;5004138;28;20038;-48
2022/03/21 01:30:05;;;;;;;15.85;8.95;;;5.40;68.80;;;;;;5011761;28;20057;-54
2022/03/21 01:32:34;;;;;;;13.13;9.18;;;5.40;69.00;;;;;;5010089;28;20026;-50
2022/03/21 01:34:59;;;;;;;14.13;9.60;;;5.40;68.00;;;;;;5009758;28;20068;-49
2022/03/21 01:37:25;;;;;;;12.57;8.50;;;5.30;69.50;;;;;;4992263;28;20496;-49
2022/03/21 01:39:50;;;;;;;15.32;8.43;;;5.30;69.20;;;;;;4991882;28;20031;-50
2022/03/21 01:42:16;;;;;;;13.73;8.65;;;5.30;70.00;;;;;;4991373;28;20030;-51
2022/03/21 01:44:42;;;;;;;13.48;8.85;;;5.30;70.20;;;;;;4997913;28;20026;-50
2022/03/21 01:47:09;;;;;;;12.63;8.80;;;5.20;69.20;;;;;;5011370;28;20040;-52
2022/03/21 01:49:35;;;;;;;16.50;8.93;;;5.20;69.40;;;;;;4993477;28;20571;-49
2022/03/21 01:52:00;;;;;;;11.95;7.75;;;5.20;70.30;;;;;;4991591;28;20038;-54
2022/03/21 01:57:11;;;;;;;13.75;8.82;;;5.10;70.90;;;;;;4992888;28;20100;-51
2022/03/21 01:59:37;;;;;;;13.02;9.43;;;5.10;70.40;;;;;;5005867;28;20088;-50
2022/03/21 02:02:05;;;;;;;11.40;8.60;;;5.10;70.70;;;;;;4992699;28;20046;-52
2022/03/21 02:04:31;;;;;;;11.52;8.25;;;5.10;70.60;;;;;;4991907;28;20030;-52
2022/03/21 02:06:57;;;;;;;12.25;9.10;;;5.10;72.00;;;;;;4992717;28;20515;-50
2022/03/21 02:09:22;;;;;;;11.32;8.90;;;5.00;70.50;;;;;;4992706;28;20089;-50
2022/03/21 02:11:48;;;;;;;10.85;8.20;;;5.00;71.80;;;;;;4991399;28;20026;-51
2022/03/21 02:14:14;;;;;;;13.57;9.02;;;5.00;70.80;;;;;;4991616;28;20038;-54
2022/03/21 02:16:40;;;;;;;11.93;9.35;;;4.90;72.60;;;;;;5003925;28;20551;-49
2022/03/21 02:19:15;;;;;;;13.20;9.23;;;4.90;72.20;;;;;;5009897;28;20109;-53
2022/03/21 02:21:57;;;;;;;14.05;9.45;;;4.90;71.80;;;;;;5011012;28;20068;-54
2022/03/21 02:24:56;;;;;;;13.07;8.02;;;4.90;71.70;;;;;;5007913;28;20042;-51
2022/03/21 02:27:25;;;;;;;16.20;9.35;;;4.90;71.90;;;;;;4983531;28;20034;-54
2022/03/21 02:29:51;;;;;;;13.73;9.27;;;4.90;72.10;;;;;;4991507;28;20117;-53
2022/03/21 02:32:18;;;;;;;13.10;8.35;;;4.90;71.60;;;;;;4975191;28;20081;-55
2022/03/21 02:34:46;;;;;;;12.57;8.70;;;4.80;71.80;;;;;;4991236;28;20033;-51
2022/03/21 02:37:17;;;;;;;11.48;8.85;;;4.80;73.50;;;;;;4990947;28;20045;-51
2022/03/21 02:39:44;;;;;;;11.88;8.38;;;4.80;73.50;;;;;;4991284;28;20475;-52
2022/03/21 02:42:11;;;;;;;11.85;9.30;;;4.70;73.50;;;;;;4990682;28;20030;-54
2022/03/21 02:44:38;;;;;;;12.85;8.18;;;4.70;72.50;;;;;;4990532;28;20099;-52
2022/03/21 02:47:05;;;;;;;11.93;8.70;;;4.70;73.30;;;;;;4991460;28;20076;-52
2022/03/21 02:49:31;;;;;;;12.13;9.43;;;4.70;74.00;;;;;;4990940;28;20030;-49
2022/03/21 02:51:59;;;;;;;11.80;7.97;;;4.60;74.40;;;;;;4989956;28;20053;-52
2022/03/21 02:54:25;;;;;;;12.20;8.35;;;4.60;73.90;;;;;;4989735;28;20073;-50
2022/03/21 02:56:51;;;;;;;14.02;8.63;;;4.60;73.70;;;;;;4990705;28;20038;-50
2022/03/21 02:59:17;;;;;;;12.55;8.93;;;4.60;75.10;;;;;;5001977;28;20053;-53
2022/03/21 03:01:43;;;;;;;13.18;9.20;;;4.60;74.00;;;;;;4996031;28;20045;-51
2022/03/21 03:04:09;;;;;;;11.85;8.98;;;4.60;74.10;;;;;;4991689;28;20030;-52
2022/03/21 03:06:35;;;;;;;12.40;8.57;;;4.50;74.90;;;;;;4991850;28;20037;-50
2022/03/21 03:09:00;;;;;;;14.02;8.90;;;4.50;74.80;;;;;;4990887;28;20039;-51
2022/03/21 03:11:26;;;;;;;12.90;8.43;;;4.50;74.70;;;;;;5004441;28;20036;-52
2022/03/21 03:13:51;;;;;;;13.10;8.68;;;4.50;74.90;;;;;;4999567;28;20050;-50
2022/03/21 03:16:17;;;;;;;13.82;9.10;;;4.40;75.80;;;;;;4995470;28;20501;-50
2022/03/21 03:18:44;;;;;;;15.90;8.55;;;4.40;76.90;;;;;;5004298;28;20037;-50
2022/03/21 03:21:11;;;;;;;14.95;9.20;;;4.30;76.00;;;;;;4990241;28;20041;-52
2022/03/21 03:23:38;;;;;;;11.20;8.35;;;4.30;76.60;;;;;;4993815;28;20412;-53
2022/03/21 03:26:04;;;;;;;11.63;8.55;;;4.30;76.70;;;;;;5001042;28;20606;-53
2022/03/21 03:28:31;;;;;;;13.05;9.05;;;4.30;78.00;;;;;;4990029;28;20046;-49
2022/03/21 03:30:59;;;;;;;13.20;8.32;;;4.20;78.10;;;;;;4990253;28;20117;-48
2022/03/21 03:33:25;;;;;;;12.90;8.70;;;4.20;78.20;;;;;;4990783;28;20042;-52
2022/03/21 03:35:51;;;;;;;15.05;9.00;;;4.20;77.00;;;;;;4989866;28;20088;-53
2022/03/21 03:38:17;;;;;;;12.73;8.15;;;4.20;76.70;;;;;;4990163;28;20084;-49
2022/03/21 03:40:43;;;;;;;14.90;9.63;;;4.20;78.40;;;;;;4996352;28;20080;-54
2022/03/21 03:43:10;;;;;;;14.40;9.25;;;4.20;77.60;;;;;;4991275;28;20567;-49
2022/03/21 03:45:36;;;;;;;12.88;8.95;;;4.20;78.60;;;;;;4990432;28;20461;-50
2022/03/21 03:48:02;;;;;;;13.25;8.65;;;4.10;79.70;;;;;;5002448;28;20041;-51
2022/03/21 03:50:28;;;;;;;13.00;9.45;;;4.10;79.10;;;;;;5007931;28;20030;-51
2022/03/21 03:52:53;;;;;;;11.80;8.38;;;4.10;79.30;;;;;;5009418;28;20060;-54
2022/03/21 03:55:19;;;;;;;12.13;9.05;;;4.10;80.00;;;;;;5009205;28;20098;-51
2022/03/21 03:57:46;;;;;;;13.90;9.00;;;4.10;79.90;;;;;;5009339;28;20401;-50
2022/03/21 04:00:13;;;;;;;13.43;9.18;;;4.10;78.80;;;;;;5002686;28;20038;-50
2022/03/21 04:05:24;;;;;;;12.13;8.30;;;4.00;80.00;;;;;;5008509;28;20110;-50
2022/03/21 04:07:50;;;;;;;13.98;8.57;;;4.00;79.70;;;;;;5009296;28;20057;-50
2022/03/21 04:10:16;;;;;;;13.40;9.10;;;4.00;80.30;;;;;;5007820;28;20034;-48
2022/03/21 04:12:43;;;;;;;11.38;8.38;;;4.00;79.20;;;;;;5003668;28;20519;-52
2022/03/21 04:15:09;;;;;;;13.43;8.73;;;4.00;79.60;;;;;;4990375;28;20448;-48
2022/03/21 04:17:35;;;;;;;14.43;8.90;;;4.00;79.30;;;;;;4998915;28;20034;-50
2022/03/21 04:20:02;;;;;;;12.10;8.55;;;4.00;80.70;;;;;;4988228;28;20548;-51
2022/03/21 04:22:28;;;;;;;13.57;9.18;;;3.90;81.70;;;;;;4989674;28;20369;-50
2022/03/21 04:24:54;;;;;;;11.30;9.10;;;3.90;80.30;;;;;;4990800;28;20038;-55
2022/03/21 04:27:20;;;;;;;10.93;8.20;;;3.90;80.50;;;;;;4989539;28;20039;-48
2022/03/21 04:29:45;;;;;;;13.45;8.57;;;3.90;80.00;;;;;;4992180;28;20034;-49
2022/03/21 04:32:11;;;;;;;12.55;8.82;;;3.90;80.50;;;;;;5008939;28;20038;-53
2022/03/21 04:34:36;;;;;;;13.05;10.00;;;3.90;80.50;;;;;;5006861;28;20037;-53
2022/03/21 04:37:02;;;;;;;11.27;8.70;;;3.90;81.40;;;;;;5008952;28;20037;-51
2022/03/21 04:39:28;;;;;;;14.23;8.77;;;3.80;80.70;;;;;;5008767;28;20038;-52
2022/03/21 04:41:54;;;;;;;12.43;8.50;;;3.80;82.60;;;;;;5006021;28;20492;-49
2022/03/21 04:44:19;;;;;;;13.35;8.88;;;3.80;83.40;;;;;;4992825;28;20059;-53
2022/03/21 04:46:45;;;;;;;15.70;9.65;;;3.70;81.90;;;;;;5008737;28;20030;-49
2022/03/21 04:49:10;;;;;;;11.90;8.65;;;3.70;83.50;;;;;;5007348;28;20056;-49
2022/03/21 04:51:36;;;;;;;11.77;8.90;;;3.70;83.20;;;;;;5007176;28;20105;-53
2022/03/21 04:54:02;;;;;;;20.95;9.02;;;3.70;83.10;;;;;;5008452;28;20057;-52
2022/03/21 04:56:27;;;;;;;12.52;8.25;;;3.60;83.50;;;;;;5007126;28;20042;-50
2022/03/21 04:58:53;;;;;;;14.02;9.07;;;3.60;82.60;;;;;;4993984;28;20037;-50
2022/03/21 05:01:19;;;;;;;11.82;8.35;;;3.60;84.10;;;;;;4989667;28;20101;-53
2022/03/21 05:03:45;;;;;;;12.65;8.45;;;3.50;83.30;;;;;;5002695;28;20089;-52
2022/03/21 05:06:12;;;;;;;11.93;9.43;;;3.50;83.90;;;;;;5004949;28;20563;-49
2022/03/21 05:08:37;;;;;;;14.63;8.95;;;3.50;85.40;;;;;;4988058;28;20110;-52
2022/03/21 05:11:03;;;;;;;11.20;8.60;;;3.40;85.80;;;;;;4998071;28;20046;-50
2022/03/21 05:13:29;;;;;;;11.25;8.73;;;3.40;86.80;;;;;;5001390;28;20039;-53
2022/03/21 05:15:55;;;;;;;13.07;9.40;;;3.40;85.60;;;;;;4988711;28;20106;-54
2022/03/21 05:18:22;;;;;;;11.40;8.73;;;3.40;87.10;;;;;;4991287;28;20121;-51
2022/03/21 05:20:48;;;;;;;11.20;8.70;;;3.30;86.40;;;;;;4992566;28;20022;-52
2022/03/21 05:31:27;;;;;;;12.50;8.40;;;3.30;87.20;;;;;;4998614;28;20135;-50
2022/03/21 05:36:37;;;;;;;12.32;9.43;;;3.30;86.90;;;;;;4992853;28;20049;-49
2022/03/21 05:39:03;;;;;;;12.40;9.25;;;3.30;89.20;;;;;;4992565;28;20038;-51
2022/03/21 05:41:29;;;;;;;14.45;8.77;;;3.30;89.00;;;;;;4976238;28;20023;-50
2022/03/21 05:43:55;;;;;;;13.02;9.02;;;3.30;88.20;;;;;;4991117;28;20037;-47
2022/03/21 05:46:21;;;;;;;12.77;9.00;;;3.20;88.30;;;;;;4993602;28;20038;-52
2022/03/21 05:48:59;;;;;;;12.27;9.25;;;3.30;89.00;;;;;;4992240;28;20034;-53
2022/03/21 05:51:28;;;;;;;13.25;9.38;;;3.30;89.00;;;;;;4992254;28;20027;-49
2022/03/21 05:53:54;;;;;;;13.50;9.68;;;3.30;89.00;;;;;;4993572;28;20109;-52
2022/03/21 05:56:21;;;;;;;12.25;8.75;;;3.30;88.80;;;;;;5008319;28;20046;-50
2022/03/21 05:58:47;;;;;;;16.92;9.32;;;3.30;89.20;;;;;;4994211;28;20034;-50
2022/03/21 06:01:18;;;;;;;14.73;9.93;;;3.30;89.90;;;;;;5002688;28;20033;-50
2022/03/21 06:03:44;;;;;;;14.65;10.35;;;3.30;89.50;;;;;;5004856;28;20084;-50
2022/03/21 06:06:10;;;;;;;10.32;7.78;;;3.30;89.20;;;;;;4991883;28;20359;-51
2022/03/21 06:08:36;;;;;;;12.60;8.88;;;3.30;89.90;;;;;;4993934;28;20161;-52
2022/03/21 06:11:04;;;;;;;10.38;8.95;;;3.30;90.40;;;;;;5010507;28;20175;-50
2022/03/21 06:13:31;;;;;;;13.25;9.15;;;3.30;89.60;;;;;;5011234;28;20105;-51
2022/03/21 06:16:01;;;;;;;15.00;9.40;;;3.30;90.50;;;;;;5009112;28;20026;-51
2022/03/21 06:18:27;;;;;;;12.75;8.77;;;3.20;90.30;;;;;;5003378;28;20034;-50
2022/03/21 06:20:52;;;;;;;10.90;8.75;;;3.30;90.00;;;;;;5009846;28;20101;-51
2022/03/21 06:23:18;;;;;;;16.27;9.00;;;3.30;90.80;;;;;;5011255;28;20112;-50
2022/03/21 06:25:44;;;;;;;14.07;9.88;;;3.40;90.50;;;;;;4997610;28;20396;-48
2022/03/21 06:28:09;;;;;;;13.15;8.93;;;3.40;89.10;;;;;;4991193;28;20038;-51
2022/03/21 06:30:35;;;;;;;13.50;9.27;;;3.40;91.00;;;;;;4994626;28;20038;-50
2022/03/21 06:33:00;;;;;;;14.02;10.07;;;3.40;89.60;;;;;;5010321;28;20040;-52
2022/03/21 06:35:26;;;;;;;13.75;9.10;;;3.40;90.00;;;;;;5007649;28;20030;-54
2022/03/21 06:37:51;;;;;;;12.95;9.38;;;3.40;90.10;;;;;;5009153;28;20381;-51
2022/03/21 06:40:17;;;;;;;14.30;9.82;;;3.50;90.80;;;;;;5010056;28;20030;-51
2022/03/21 06:42:43;;;;;;;13.75;9.68;;;3.40;90.90;;;;;;5010130;28;20030;-49
2022/03/21 06:45:09;;;;;;;13.38;9.68;;;3.50;91.20;;;;;;5005559;28;20029;-50
2022/03/21 06:47:34;;;;;;;15.32;9.77;;;3.50;92.00;;;;;;4990765;28;20034;-54
2022/03/21 06:50:00;;;;;;;11.02;8.25;;;3.50;91.30;;;;;;4992325;28;20030;-51
2022/03/21 06:52:25;;;;;;;14.75;9.57;;;3.50;92.70;;;;;;5001024;28;20034;-52
2022/03/21 06:54:52;;;;;;;13.55;9.35;;;3.50;91.40;;;;;;4990363;28;20091;-52
2022/03/21 06:57:18;;;;;;;11.23;8.65;;;3.60;90.80;;;;;;4991117;28;20499;-51
2022/03/21 06:59:45;;;;;;;12.27;8.68;;;3.60;91.80;;;;;;4990807;28;20087;-50
2022/03/21 07:02:12;;;;;;;12.32;8.77;;;3.60;92.60;;;;;;4990404;28;20022;-51
2022/03/21 07:04:38;;;;;;;16.33;9.80;;;3.70;91.90;;;;;;4990933;28;20030;-55
2022/03/21 07:07:04;;;;;;;14.60;9.88;;;3.80;91.60;;;;;;4991125;28;20374;-50
2022/03/21 07:09:29;;;;;;;12.80;8.98;;;3.80;91.20;;;;;;4990704;28;20473;-52
2022/03/21 07:11:55;;;;;;;12.38;9.23;;;3.90;91.10;;;;;;4990240;28;20112;-50
2022/03/21 07:14:21;;;;;;;13.13;9.75;;;4.00;91.20;;;;;;4990503;28;20615;-52
2022/03/21 07:16:50;;;;;;;11.35;9.23;;;4.10;90.90;;;;;;4990209;28;20128;-52
2022/03/21 07:19:15;;;;;;;15.25;9.90;;;4.20;90.70;;;;;;4990581;28;20026;-53
2022/03/21 07:21:44;;;;;;;14.10;9.07;;;4.30;91.00;;;;;;4990600;28;20126;-49
2022/03/21 07:24:09;;;;;;;12.02;8.93;;;4.30;90.10;;;;;;4990266;28;20022;-51
2022/03/21 07:26:36;;;;;;;12.60;9.27;;;4.40;90.40;;;;;;4991320;28;20404;-51
2022/03/21 07:29:04;;;;;;;12.90;9.45;;;4.50;89.60;;;;;;5005958;28;20536;-52
2022/03/21 07:31:30;;;;;;;13.85;9.48;;;4.60;86.40;;;;;;4990212;28;20520;-47
2022/03/21 07:33:56;;;;;;;12.38;9.27;;;4.60;86.30;;;;;;4990283;28;20057;-49
2022/03/21 07:36:22;;;;;;;13.70;9.65;;;4.70;87.60;;;;;;4990170;28;20505;-48
2022/03/21 07:38:47;;;;;;;11.18;8.70;;;4.70;86.80;;;;;;4990109;28;20030;-51
2022/03/21 07:41:13;;;;;;;12.77;9.30;;;4.80;87.80;;;;;;4989835;28;20469;-51
2022/03/21 07:43:38;;;;;;;13.15;9.70;;;4.90;87.80;;;;;;4989943;28;20477;-48
2022/03/21 07:48:50;;;;;;;14.48;9.77;;;5.20;86.10;;;;;;4990165;28;20081;-50
2022/03/21 07:51:16;;;;;;;13.70;9.90;;;5.30;85.30;;;;;;4991411;28;20452;-50
2022/03/21 07:53:42;;;;;;;12.68;9.38;;;5.40;84.50;;;;;;5001662;28;20093;-49
2022/03/21 07:56:09;;;;;;;13.98;8.23;;;5.50;84.70;;;;;;4999994;28;20405;-51
2022/03/21 07:58:35;;;;;;;11.77;9.25;;;5.70;82.00;;;;;;5008137;28;20041;-49
2022/03/21 08:01:03;;;;;;;13.07;9.35;;;5.80;81.70;;;;;;5007157;28;20050;-48
2022/03/21 08:03:29;;;;;;;14.27;9.27;;;5.90;81.30;;;;;;5006243;28;20041;-52
2022/03/21 08:05:57;;;;;;;12.95;9.57;;;6.10;80.20;;;;;;4998987;28;20103;-53
2022/03/21 08:08:23;;;;;;;15.18;9.95;;;6.30;80.00;;;;;;4989749;28;20121;-51
2022/03/21 08:10:48;;;;;;;11.38;9.50;;;6.40;80.80;;;;;;5002894;28;20400;-49
2022/03/21 08:13:17;;;;;;;10.35;8.73;;;6.60;77.90;;;;;;5009390;28;20037;-49
2022/03/21 08:15:44;;;;;;;16.58;9.48;;;6.70;77.70;;;;;;5006633;28;20217;-51
2022/03/21 08:18:11;;;;;;;14.70;10.27;;;6.90;78.40;;;;;;5000724;28;20508;-51
2022/03/21 08:20:39;;;;;;;14.32;9.45;;;7.00;75.10;;;;;;4988420;28;20027;-50
2022/03/21 08:23:11;;;;;;;13.90;9.70;;;7.10;75.40;;;;;;4995899;28;20100;-50
2022/03/21 08:25:38;;;;;;;13.30;9.68;;;7.20;76.10;;;;;;5009463;28;20014;-51
2022/03/21 08:28:08;;;;;;;14.63;9.73;;;7.30;75.00;;;;;;5009030;28;20076;-51
2022/03/21 08:30:36;;;;;;;12.02;9.32;;;7.50;75.70;;;;;;5003589;28;20034;-51
2022/03/21 08:33:04;;;;;;;15.60;9.50;;;7.70;72.00;;;;;;4989432;28;20054;-50
2022/03/21 08:35:33;;;;;;;13.90;9.27;;;7.70;71.30;;;;;;4989653;28;20034;-51
2022/03/21 08:37:59;;;;;;;16.33;9.55;;;7.80;72.70;;;;;;4988783;28;20088;-49
2022/03/21 08:40:25;;;;;;;12.45;9.88;;;7.90;71.40;;;;;;4993231;28;20512;-49
2022/03/21 08:42:50;;;;;;;13.55;9.43;;;8.10;72.40;;;;;;4989173;28;20034;-50
2022/03/21 08:45:16;;;;;;;12.60;9.60;;;8.30;71.30;;;;;;4989238;28;20034;-50
2022/03/21 08:47:43;;;;;;;14.18;10.38;;;8.50;69.30;;;;;;5007836;28;20505;-52
2022/03/21 08:50:09;;;;;;;12.75;10.10;;;8.60;69.90;;;;;;5009154;28;20101;-51
2022/03/21 08:52:36;;;;;;;10.27;8.95;;;8.70;68.00;;;;;;4995287;28;20018;-51
2022/03/21 08:55:02;;;;;;;12.70;9.40;;;8.80;70.70;;;;;;4996313;28;20034;-53
2022/03/21 08:57:28;;;;;;;16.67;9.75;;;8.90;70.60;;;;;;5007853;28;20034;-52
2022/03/21 08:59:54;;;;;;;13.35;9.65;;;9.20;69.10;;;;;;4992937;28;20029;-53
2022/03/21 09:02:20;;;;;;;12.77;9.88;;;9.30;70.10;;;;;;4993605;28;20038;-51
2022/03/21 09:04:46;;;;;;;13.95;10.50;;;9.50;67.00;;;;;;4993188;28;20026;-52
2022/03/21 09:07:13;;;;;;;12.30;9.20;;;9.70;67.80;;;;;;5012747;28;20022;-52
2022/03/21 09:09:39;;;;;;;11.60;9.23;;;9.90;70.00;;;;;;5007983;28;20034;-53
2022/03/21 09:12:05;;;;;;;12.18;9.48;;;10.00;65.80;;;;;;4994154;28;20077;-51
2022/03/21 09:14:31;;;;;;;11.13;9.07;;;10.10;65.10;;;;;;4992280;28;20064;-52
2022/03/21 09:16:57;;;;;;;12.85;9.23;;;10.20;64.20;;;;;;4992479;28;20484;-51
2022/03/21 09:19:23;;;;;;;13.32;10.23;;;10.10;63.60;;;;;;4992646;28;20022;-54
2022/03/21 09:21:53;;;;;;;13.75;9.90;;;10.10;65.00;;;;;;4991427;28;20441;-54
2022/03/21 09:24:19;;;;;;;13.00;9.98;;;10.20;65.80;;;;;;4992971;28;20396;-50
2022/03/21 09:26:45;;;;;;;11.45;9.15;;;10.30;64.50;;;;;;4991233;28;20031;-51
2022/03/21 09:29:11;;;;;;;12.73;10.18;;;10.40;63.30;;;;;;4992398;28;20034;-52
2022/03/21 09:31:38;;;;;;;12.88;9.38;;;10.50;64.40;;;;;;4992679;28;20030;-53
2022/03/21 09:34:04;;;;;;;10.88;9.73;;;10.50;63.10;;;;;;4992555;28;20076;-52
2022/03/21 09:36:30;;;;;;;11.90;9.88;;;10.50;63.60;;;;;;4992517;28;20042;-49
2022/03/21 09:38:55;;;;;;;11.68;9.85;;;10.70;63.60;;;;;;4992548;28;20464;-53
2022/03/21 09:41:29;;;;;;;11.18;9.35;;;10.70;63.90;;;;;;4992812;28;20023;-53
2022/03/21 09:44:00;;;;;;;13.02;10.38;;;10.80;62.80;;;;;;4992187;28;20097;-53
2022/03/21 09:46:25;;;;;;;13.57;8.90;;;10.70;62.20;;;;;;4992242;28;20018;-48
2022/03/21 09:48:53;;;;;;;13.93;9.73;;;10.80;64.40;;;;;;4992162;28;20042;-52
2022/03/21 09:51:26;;;;;;;12.95;9.80;;;10.90;63.90;;;;;;4992139;28;20022;-52
2022/03/21 09:53:53;;;;;;;16.17;10.52;;;10.90;62.50;;;;;;4992107;28;20500;-52
2022/03/21 09:56:19;;;;;;;12.50;10.02;;;10.90;63.30;;;;;;4990624;28;20530;-52
2022/03/21 09:58:45;;;;;;;14.10;9.93;;;11.00;63.40;;;;;;4990626;28;20089;-54
2022/03/21 10:01:12;;;;;;;13.38;10.48;;;11.10;62.90;;;;;;5000781;28;20027;-54
2022/03/21 10:03:41;;;;;;;13.93;10.48;;;11.20;62.90;;;;;;5010663;28;20435;-50
2022/03/21 10:06:29;;;;;;;12.55;10.45;;;11.40;62.90;;;;;;5008453;28;20034;-54
2022/03/21 10:09:19;;;;;;;10.70;9.55;;;11.50;62.80;;;;;;5010371;28;20030;-56
2022/03/21 10:11:49;;;;;;;11.95;9.85;;;11.60;62.80;;;;;;5010102;28;20105;-54
2022/03/21 10:14:22;;;;;;;13.13;10.70;;;11.80;63.20;;;;;;5011279;28;20587;-55
2022/03/21 10:16:52;;;;;;;11.73;10.05;;;11.80;61.90;;;;;;5009630;28;20052;-55
2022/03/21 10:19:17;;;;;;;13.63;9.85;;;11.80;62.90;;;;;;5011448;28;20052;-50
2022/03/21 10:22:05;;;;;;;12.35;10.60;;;11.80;61.80;;;;;;5010681;28;20033;-53
2022/03/21 10:24:36;;;;;;;12.00;9.57;;;11.90;62.20;;;;;;5011410;28;20028;-55
2022/03/21 10:27:02;;;;;;;15.68;10.02;;;12.00;64.30;;;;;;4994712;28;20401;-52
2022/03/21 10:29:28;;;;;;;11.95;9.95;;;12.20;62.00;;;;;;4992264;28;20458;-53
2022/03/21 10:31:53;;;;;;;14.32;10.38;;;12.30;60.40;;;;;;4991284;28;20064;-55
2022/03/21 10:34:24;;;;;;;13.13;9.88;;;12.20;61.10;;;;;;5004958;28;20492;-51
2022/03/21 10:37:14;;;;;;;11.32;10.13;;;12.20;61.80;;;;;;5010712;28;20025;-55
2022/03/21 10:39:50;;;;;;;12.70;10.18;;;12.20;61.90;;;;;;5009092;28;20054;-56
2022/03/21 10:42:16;;;;;;;13.68;9.18;;;12.40;61.30;;;;;;5010602;28;20034;-53
2022/03/21 10:44:53;;;;;;;14.73;10.70;;;12.40;60.10;;;;;;5008422;28;20531;-53
2022/03/21 10:47:19;;;;;;;14.35;9.80;;;12.40;60.50;;;;;;5009598;28;20057;-49
2022/03/21 10:49:45;;;;;;;12.60;10.38;;;12.40;60.90;;;;;;4995130;28;20473;-53
2022/03/21 10:52:18;;;;;;;11.75;10.00;;;12.50;60.50;;;;;;4989411;28;20034;-54
2022/03/21 10:54:48;;;;;;;11.48;9.63;;;12.60;62.00;;;;;;4990775;28;20045;-51
2022/03/21 10:57:40;;;;;;;14.07;10.68;;;12.70;60.90;;;;;;4991165;28;20047;-51
2022/03/21 11:00:19;;;;;;;12.20;9.25;;;12.80;61.60;;;;;;5009479;28;20100;-54
2022/03/21 11:02:53;;;;;;;11.23;9.77;;;12.80;60.50;;;;;;5008249;28;20033;-51
2022/03/21 11:05:20;;;;;;;12.13;9.98;;;12.90;59.80;;;;;;5008534;28;20029;-53
2022/03/21 11:07:46;;;;;;;12.68;9.43;;;13.00;59.30;;;;;;5008478;28;20037;-52
2022/03/21 11:10:12;;;;;;;12.35;10.32;;;13.00;59.50;;;;;;5010327;28;20014;-56
2022/03/21 11:12:39;;;;;;;12.30;10.07;;;13.10;58.00;;;;;;5009701;28;20061;-52
2022/03/21 11:15:06;;;;;;;15.00;10.73;;;13.10;57.80;;;;;;5008886;28;20029;-53
2022/03/21 11:17:33;;;;;;;11.82;9.88;;;13.00;58.10;;;;;;5009697;28;20100;-52
2022/03/21 11:20:03;;;;;;;13.65;10.30;;;13.00;58.90;;;;;;4988356;28;20034;-53
2022/03/21 11:22:29;;;;;;;14.30;10.70;;;13.00;58.40;;;;;;4989957;28;20019;-51
2022/03/21 11:25:04;;;;;;;14.70;10.63;;;12.90;58.90;;;;;;4990603;28;20026;-52
2022/03/21 11:27:47;;;;;;;14.00;11.00;;;13.00;60.00;;;;;;4990392;28;20465;-52
2022/03/21 11:30:42;;;;;;;14.48;10.68;;;13.00;59.30;;;;;;4990548;28;20065;-55
2022/03/21 11:33:33;;;;;;;12.93;10.60;;;13.10;58.60;;;;;;4990074;28;20034;-55
2022/03/21 11:36:02;;;;;;;13.07;10.45;;;13.10;57.90;;;;;;4990356;28;20084;-52
2022/03/21 11:38:30;;;;;;;12.48;10.68;;;13.20;59.40;;;;;;4990278;28;20041;-53
2022/03/21 11:41:31;;;;;;;13.18;9.65;;;13.30;59.10;;;;;;4990538;28;20028;-50
2022/03/21 11:44:06;;;;;;;14.35;10.27;;;13.30;59.80;;;;;;4989933;28;20018;-56
2022/03/21 11:46:32;;;;;;;12.38;10.43;;;13.40;59.90;;;;;;4990117;28;20103;-54
2022/03/21 11:48:59;;;;;;;11.68;10.25;;;13.50;57.70;;;;;;4990027;28;20037;-55
2022/03/21 11:51:27;;;;;;;12.00;9.80;;;13.60;57.90;;;;;;4990020;28;20022;-55
2022/03/21 11:53:54;;;;;;;14.00;10.32;;;13.60;57.00;;;;;;4989568;28;20015;-52
2022/03/21 11:57:03;;;;;;;14.90;10.45;;;13.60;57.10;;;;;;4989941;28;20042;-56
2022/03/21 11:59:34;;;;;;;16.40;10.30;;;13.60;58.00;;;;;;4987184;28;20026;-52
2022/03/21 12:02:12;;;;;;;11.82;9.80;;;13.70;59.00;;;;;;4989423;28;20563;-51
2022/03/21 12:04:40;;;;;;;12.55;10.57;;;13.70;58.70;;;;;;4989864;28;20121;-50
2022/03/21 12:07:11;;;;;;;13.30;10.40;;;13.70;57.70;;;;;;4989981;28;20026;-51
2022/03/21 12:09:44;;;;;;;12.80;10.52;;;13.70;57.20;;;;;;4988705;28;20022;-54
2022/03/21 12:12:17;;;;;;;12.65;10.35;;;13.70;58.80;;;;;;4989666;28;20034;-52
2022/03/21 12:14:48;;;;;;;14.38;10.95;;;13.70;56.80;;;;;;4989816;28;20037;-52
2022/03/21 12:17:13;;;;;;;13.13;10.68;;;13.80;57.70;;;;;;4989965;28;20054;-53
2022/03/21 12:19:45;;;;;;;13.25;10.05;;;13.90;57.40;;;;;;4989705;28;20449;-53
2022/03/21 12:22:38;;;;;;;13.57;10.45;;;13.80;57.60;;;;;;4989792;28;20050;-53
2022/03/21 12:25:08;;;;;;;12.63;10.10;;;13.90;57.60;;;;;;4989739;28;20388;-51
2022/03/21 12:27:45;;;;;;;12.88;10.77;;;13.90;57.80;;;;;;4992216;28;20027;-52
2022/03/21 12:30:23;;;;;;;13.55;10.48;;;13.90;57.10;;;;;;4993558;28;20509;-53
2022/03/21 12:32:56;;;;;;;12.80;10.00;;;13.90;58.00;;;;;;4992107;28;20392;-51
2022/03/21 12:35:31;;;;;;;14.85;10.57;;;13.90;57.40;;;;;;5000901;28;20026;-52
2022/03/21 12:38:00;;;;;;;14.15;10.57;;;13.90;58.60;;;;;;4973416;28;20085;-51
2022/03/21 12:40:26;;;;;;;12.68;9.95;;;14.00;57.40;;;;;;4974196;28;20027;-52
2022/03/21 12:42:54;;;;;;;12.63;10.35;;;14.00;58.50;;;;;;5012087;28;20080;-52
2022/03/21 12:45:20;;;;;;;12.35;10.40;;;14.10;57.80;;;;;;5011004;28;20026;-54
2022/03/21 12:47:47;;;;;;;12.90;10.95;;;14.10;57.50;;;;;;4993076;28;20105;-53
2022/03/21 12:50:24;;;;;;;12.95;10.27;;;14.20;57.70;;;;;;5004563;28;20072;-55
2022/03/21 12:53:02;;;;;;;16.77;11.73;;;14.20;57.90;;;;;;4992728;28;20029;-51
2022/03/21 12:55:28;;;;;;;14.98;10.50;;;14.10;57.80;;;;;;4993348;28;20038;-51
2022/03/21 12:57:57;;;;;;;12.88;11.05;;;14.20;56.90;;;;;;4993161;28;20385;-52
2022/03/21 13:00:26;;;;;;;12.75;9.60;;;14.10;58.00;;;;;;4992935;28;20043;-52
2022/03/21 13:02:55;;;;;;;15.60;11.27;;;14.10;57.20;;;;;;4991573;28;20528;-52
2022/03/21 13:11:02;;;;;;;14.50;9.63;;;14.10;57.70;;;;;;5005676;28;20033;-55